Time;durP1;ratioP1;P1;durP2;ratioP2;P2;SDS_P1;SDS_P2;PMS_P1;PMS_P2;Temp;Humidity;BMP_temperature;BMP_pressure;BME280_temperature;BME280_humidity;BME280_pressure;Samples;Min_cycle;Max_cycle;Signal;HPM_P1;HPM_P2
2024/03/15 00:02:46;;;;;;;0.90;0.90;;;11.50;99.90;;;;;;10584048;28;20260;-83
2024/03/15 00:07:48;;;;;;;0.90;0.90;;;11.50;99.90;;;;;;10546692;28;20279;-83
2024/03/15 00:12:51;;;;;;;1.00;1.00;;;11.50;99.90;;;;;;10565207;28;20664;-83
2024/03/15 00:17:54;;;;;;;0.87;0.87;;;11.60;99.90;;;;;;10562490;28;20454;-83
2024/03/15 00:22:56;;;;;;;0.97;0.97;;;11.70;99.90;;;;;;10563057;28;20244;-83
2024/03/15 00:27:59;;;;;;;0.80;0.80;;;11.70;99.90;;;;;;10564603;28;20634;-83
2024/03/15 00:33:01;;;;;;;0.80;0.80;;;11.70;99.90;;;;;;10570850;28;20202;-83
2024/03/15 00:38:04;;;;;;;0.80;0.80;;;11.80;99.90;;;;;;10582727;28;20684;-82
2024/03/15 00:43:06;;;;;;;0.70;0.70;;;11.80;99.90;;;;;;10568540;28;20292;-83
2024/03/15 00:48:09;;;;;;;0.70;0.70;;;11.90;99.90;;;;;;10592546;28;20288;-83
2024/03/15 00:53:12;;;;;;;0.70;0.70;;;11.90;99.90;;;;;;10573571;28;20700;-83
2024/03/15 00:58:18;;;;;;;0.67;0.67;;;11.90;99.90;;;;;;10572439;28;20275;-83
2024/03/15 01:03:21;;;;;;;0.60;0.60;;;11.90;99.90;;;;;;10563169;28;20199;-83
2024/03/15 01:08:23;;;;;;;0.70;0.70;;;11.90;99.90;;;;;;10574060;28;20643;-83
2024/03/15 01:13:25;;;;;;;0.60;0.60;;;11.90;99.90;;;;;;10571236;28;20199;-83
2024/03/15 01:18:28;;;;;;;0.60;0.60;;;11.90;99.90;;;;;;10567851;28;20227;-83
2024/03/15 01:23:31;;;;;;;0.70;0.70;;;11.90;99.90;;;;;;10586277;28;20191;-83
2024/03/15 01:28:34;;;;;;;0.63;0.63;;;12.00;99.90;;;;;;10556458;28;20700;-83
2024/03/15 01:33:36;;;;;;;0.60;0.60;;;12.00;99.90;;;;;;10588621;28;20207;-83
2024/03/15 01:38:39;;;;;;;0.70;0.70;;;12.00;99.90;;;;;;10574180;28;20219;-83
2024/03/15 01:43:47;;;;;;;0.60;0.60;;;11.90;99.90;;;;;;10589107;28;20191;-83
2024/03/15 01:48:49;;;;;;;0.70;0.70;;;12.00;99.90;;;;;;10561598;28;20234;-83
2024/03/15 01:53:52;;;;;;;0.70;0.70;;;11.90;99.90;;;;;;10551730;28;20200;-83
2024/03/15 01:58:57;;;;;;;0.70;0.70;;;11.90;99.90;;;;;;10564017;28;20639;-83
2024/03/15 02:03:59;;;;;;;0.60;0.60;;;12.00;99.90;;;;;;10568059;28;20192;-83
2024/03/15 02:09:02;;;;;;;0.63;0.63;;;12.10;99.90;;;;;;10571176;28;20212;-83
2024/03/15 02:14:05;;;;;;;0.70;0.70;;;12.10;99.90;;;;;;10557509;28;20221;-84
2024/03/15 02:19:09;;;;;;;0.60;0.60;;;12.10;99.90;;;;;;10574740;28;20217;-83
2024/03/15 02:24:12;;;;;;;0.70;0.70;;;12.10;99.90;;;;;;10573381;28;20191;-83
2024/03/15 02:29:16;;;;;;;0.70;0.70;;;12.10;99.90;;;;;;10586234;28;20210;-83
2024/03/15 02:34:18;;;;;;;0.60;0.60;;;12.10;99.90;;;;;;10569529;28;20244;-83
2024/03/15 02:39:24;;;;;;;0.70;0.70;;;12.10;99.90;;;;;;10570480;28;20280;-83
2024/03/15 02:44:26;;;;;;;0.70;0.70;;;12.00;99.90;;;;;;10586405;28;20627;-83
2024/03/15 02:49:28;;;;;;;0.60;0.60;;;12.00;99.90;;;;;;10584574;28;20229;-84
2024/03/15 02:54:31;;;;;;;0.80;0.80;;;11.90;99.90;;;;;;10557381;28;20253;-83
2024/03/15 02:59:33;;;;;;;0.77;0.77;;;11.80;99.90;;;;;;10583810;28;20252;-83
2024/03/15 03:04:36;;;;;;;0.70;0.70;;;11.80;99.90;;;;;;10559382;28;20200;-83
2024/03/15 03:09:39;;;;;;;0.80;0.80;;;11.70;99.90;;;;;;10563890;28;20264;-83
2024/03/15 03:14:42;;;;;;;0.70;0.70;;;11.60;99.90;;;;;;10557649;28;20742;-83
2024/03/15 03:19:44;;;;;;;0.80;0.80;;;11.50;99.90;;;;;;10568632;28;20231;-83
2024/03/15 03:24:47;;;;;;;0.83;0.83;;;11.50;99.90;;;;;;10576762;28;20203;-83
2024/03/15 03:29:50;;;;;;;1.00;1.00;;;11.40;99.90;;;;;;10569561;28;20218;-83
2024/03/15 03:34:52;;;;;;;0.80;0.80;;;11.40;99.90;;;;;;10587916;28;20195;-83
2024/03/15 03:39:55;;;;;;;0.83;0.83;;;11.40;99.90;;;;;;10569890;28;20280;-83
2024/03/15 03:44:58;;;;;;;0.70;0.70;;;11.40;99.90;;;;;;10587048;28;20195;-83
2024/03/15 03:50:00;;;;;;;0.90;0.90;;;11.40;99.90;;;;;;10553028;28;20215;-83
2024/03/15 03:55:05;;;;;;;0.67;0.67;;;11.40;99.90;;;;;;10567850;28;20195;-83
2024/03/15 04:00:14;;;;;;;0.70;0.70;;;11.50;99.90;;;;;;10570511;28;20218;-83
2024/03/15 04:05:18;;;;;;;0.90;0.90;;;11.50;99.90;;;;;;10571522;28;20628;-83
2024/03/15 04:10:20;;;;;;;0.97;0.97;;;11.70;99.90;;;;;;10573039;28;20222;-83
2024/03/15 04:15:22;;;;;;;0.90;0.90;;;11.80;99.90;;;;;;10588112;28;20571;-82
2024/03/15 04:20:26;;;;;;;1.00;1.00;;;11.90;99.90;;;;;;10560815;28;20237;-83
2024/03/15 04:25:28;;;;;;;0.90;0.90;;;12.00;99.90;;;;;;10588336;28;20211;-83
2024/03/15 04:30:31;;;;;;;0.83;0.83;;;12.10;99.90;;;;;;10590344;28;20702;-83
2024/03/15 04:35:33;;;;;;;0.90;0.90;;;12.10;99.90;;;;;;10586311;28;20235;-83
2024/03/15 04:40:36;;;;;;;0.93;0.93;;;12.20;99.90;;;;;;10589452;28;20218;-83
2024/03/15 04:45:38;;;;;;;0.90;0.90;;;12.20;99.90;;;;;;10569613;28;20229;-82
2024/03/15 04:50:41;;;;;;;0.90;0.90;;;12.20;99.90;;;;;;10583937;28;20226;-83
2024/03/15 04:55:43;;;;;;;0.83;0.83;;;12.30;99.90;;;;;;10586693;28;20199;-83
2024/03/15 05:00:45;;;;;;;1.00;1.00;;;12.30;99.90;;;;;;10586150;28;20607;-83
2024/03/15 05:05:49;;;;;;;0.90;0.90;;;12.30;99.90;;;;;;10553781;28;20280;-84
2024/03/15 05:10:52;;;;;;;0.43;0.43;;;12.30;99.90;;;;;;10576362;28;20215;-83
2024/03/15 05:15:54;;;;;;;0.80;0.80;;;12.30;99.90;;;;;;10562772;28;20252;-83
2024/03/15 05:20:57;;;;;;;0.70;0.70;;;12.30;99.90;;;;;;10580834;28;20330;-83
2024/03/15 05:25:59;;;;;;;0.80;0.80;;;12.20;99.90;;;;;;10594530;28;20199;-83
2024/03/15 05:31:03;;;;;;;0.90;0.90;;;12.20;99.90;;;;;;10583226;28;20226;-83
2024/03/15 05:36:06;;;;;;;0.80;0.80;;;12.10;99.90;;;;;;10583089;28;20199;-83
2024/03/15 05:41:08;;;;;;;1.00;1.00;;;12.10;99.90;;;;;;10564921;28;20267;-83
2024/03/15 05:46:11;;;;;;;0.80;0.80;;;12.00;99.90;;;;;;10565037;28;20626;-83
2024/03/15 05:51:14;;;;;;;0.90;0.90;;;11.90;99.90;;;;;;10576772;28;20642;-83
2024/03/15 05:56:18;;;;;;;1.00;1.00;;;11.90;99.90;;;;;;10577415;28;20672;-83
2024/03/15 06:01:21;;;;;;;0.70;0.70;;;11.80;99.90;;;;;;10576162;28;20219;-82
2024/03/15 06:06:25;;;;;;;0.60;0.60;;;11.70;99.90;;;;;;10579290;28;20195;-84
2024/03/15 06:11:27;;;;;;;0.73;0.73;;;11.70;99.90;;;;;;10582281;28;20188;-80
2024/03/15 06:16:31;;;;;;;0.90;0.90;;;11.70;99.90;;;;;;10584934;28;20195;-80
2024/03/15 06:21:34;;;;;;;0.63;0.63;;;11.70;99.90;;;;;;10556701;28;20223;-80
2024/03/15 06:26:36;;;;;;;0.80;0.80;;;11.70;99.90;;;;;;10590065;28;20757;-80
2024/03/15 06:31:39;;;;;;;0.70;0.70;;;11.70;99.90;;;;;;10568855;28;20207;-81
2024/03/15 06:36:43;;;;;;;0.50;0.50;;;11.70;99.90;;;;;;10577689;28;20215;-80
2024/03/15 06:41:51;;;;;;;0.77;0.77;;;11.60;99.90;;;;;;10580360;28;20268;-80
2024/03/15 06:47:15;;;;;;;0.20;0.20;;;11.50;99.90;;;;;;10552284;28;20812;-81
2024/03/15 06:57:43;;;;;;;0.57;0.57;;;11.50;99.90;;;;;;10544349;28;20219;-82
2024/03/15 07:02:45;;;;;;;0.80;0.80;;;11.40;99.90;;;;;;10585337;28;20240;-80
2024/03/15 07:07:48;;;;;;;0.70;0.70;;;11.50;99.90;;;;;;10562984;28;20660;-81
2024/03/15 07:12:51;;;;;;;0.70;0.70;;;11.50;99.90;;;;;;10581434;28;20229;-80
2024/03/15 07:17:54;;;;;;;0.60;0.60;;;11.60;99.90;;;;;;10580887;28;20226;-80
2024/03/15 07:22:58;;;;;;;0.60;0.60;;;11.60;99.90;;;;;;10583081;28;20274;-80
2024/03/15 07:28:00;;;;;;;0.67;0.67;;;11.70;99.90;;;;;;10581834;28;20230;-80
2024/03/15 07:33:04;;;;;;;0.50;0.50;;;11.80;99.90;;;;;;10565399;28;20195;-79
2024/03/15 07:38:06;;;;;;;0.60;0.60;;;11.90;99.90;;;;;;10583129;28;20636;-79
2024/03/15 07:43:09;;;;;;;0.30;0.30;;;12.00;99.90;;;;;;10577069;28;20268;-80
2024/03/15 07:48:11;;;;;;;0.80;0.80;;;12.20;99.90;;;;;;10548829;28;20638;-81
2024/03/15 07:53:15;;;;;;;0.70;0.70;;;12.40;99.90;;;;;;10566870;28;20195;-80
2024/03/15 07:58:17;;;;;;;0.70;0.70;;;12.70;99.90;;;;;;10561913;28;20226;-81
2024/03/15 08:03:20;;;;;;;0.60;0.60;;;12.90;99.90;;;;;;10569287;28;20199;-81
2024/03/15 08:08:22;;;;;;;0.40;0.40;;;13.00;99.90;;;;;;10565913;28;20222;-80
2024/03/15 08:13:27;;;;;;;0.67;0.67;;;13.20;99.90;;;;;;10565643;28;20211;-80
2024/03/15 08:18:32;;;;;;;0.70;0.70;;;13.30;99.90;;;;;;10563944;28;20226;-80
2024/03/15 08:23:34;;;;;;;0.53;0.53;;;13.40;99.90;;;;;;10556164;28;20203;-80
2024/03/15 08:28:37;;;;;;;0.60;0.60;;;13.50;99.90;;;;;;10557324;28;20219;-79
2024/03/15 08:33:39;;;;;;;0.50;0.50;;;13.60;99.90;;;;;;10576442;28;20202;-80
2024/03/15 08:38:42;;;;;;;0.57;0.57;;;13.80;99.90;;;;;;10567138;28;20218;-79
2024/03/15 08:43:45;;;;;;;0.40;0.40;;;13.90;99.90;;;;;;10560136;28;20206;-80
2024/03/15 08:48:50;;;;;;;0.50;0.50;;;13.90;99.90;;;;;;10569034;28;20223;-80
2024/03/15 08:53:53;;;;;;;0.50;0.50;;;14.00;99.90;;;;;;10573846;28;20207;-81
2024/03/15 08:58:58;;;;;;;0.60;0.60;;;14.10;99.90;;;;;;10558546;28;20268;-80
2024/03/15 09:04:00;;;;;;;0.53;0.53;;;14.20;99.90;;;;;;10567848;28;20252;-79
2024/03/15 09:09:08;;;;;;;0.40;0.40;;;14.30;99.90;;;;;;10572398;28;20215;-81
2024/03/15 09:14:17;;;;;;;0.50;0.50;;;14.60;99.90;;;;;;10573258;28;20624;-81
2024/03/15 09:19:20;;;;;;;0.60;0.60;;;14.90;99.90;;;;;;10577276;28;20709;-81
2024/03/15 09:24:23;;;;;;;0.60;0.60;;;15.10;99.90;;;;;;10580479;28;20198;-81
2024/03/15 09:29:27;;;;;;;0.50;0.50;;;15.30;99.90;;;;;;10576928;28;20222;-80
2024/03/15 09:34:29;;;;;;;0.43;0.43;;;15.50;99.60;;;;;;10580858;28;20203;-81
2024/03/15 09:39:32;;;;;;;0.50;0.50;;;15.80;99.40;;;;;;10578402;28;20226;-82
2024/03/15 09:44:34;;;;;;;0.60;0.60;;;16.00;99.40;;;;;;10579641;28;20198;-81
2024/03/15 09:49:37;;;;;;;0.60;0.60;;;16.30;98.60;;;;;;10578179;28;20651;-82
2024/03/15 09:54:39;;;;;;;0.60;0.60;;;16.60;98.60;;;;;;10580811;28;20218;-82
2024/03/15 09:59:42;;;;;;;0.60;0.60;;;16.80;98.10;;;;;;10579869;28;20223;-82
2024/03/15 10:04:46;;;;;;;0.60;0.60;;;17.00;98.00;;;;;;10592825;28;20248;-82
2024/03/15 10:09:49;;;;;;;0.60;0.60;;;17.30;97.80;;;;;;10588456;28;20222;-82
2024/03/15 10:14:52;;;;;;;0.50;0.50;;;17.60;96.80;;;;;;10557757;28;20207;-82
2024/03/15 10:19:54;;;;;;;0.50;0.50;;;17.50;96.50;;;;;;10570704;28;20246;-82
2024/03/15 10:24:57;;;;;;;0.50;0.50;;;17.20;97.00;;;;;;10558418;28;20206;-81
2024/03/15 10:29:59;;;;;;;0.50;0.50;;;17.00;97.60;;;;;;10575087;28;20631;-81
2024/03/15 10:35:02;;;;;;;0.40;0.40;;;16.70;97.60;;;;;;10571065;28;20191;-81
2024/03/15 10:40:05;;;;;;;0.23;0.23;;;16.60;97.40;;;;;;10570645;28;20268;-81
2024/03/15 10:45:08;;;;;;;0.37;0.37;;;16.50;97.50;;;;;;10572778;28;20710;-82
2024/03/15 10:50:12;;;;;;;0.47;0.47;;;16.50;97.60;;;;;;10557061;28;20235;-80
2024/03/15 10:55:15;;;;;;;0.50;0.50;;;16.60;97.60;;;;;;10556592;28;20191;-80
2024/03/15 11:00:18;;;;;;;0.50;0.50;;;16.70;98.30;;;;;;10573997;28;20227;-80
2024/03/15 11:05:21;;;;;;;0.50;0.50;;;16.70;98.30;;;;;;10573065;28;20191;-80
2024/03/15 11:10:23;;;;;;;0.40;0.40;;;16.60;98.30;;;;;;10573349;28;20241;-80
2024/03/15 11:15:26;;;;;;;0.40;0.40;;;16.60;98.30;;;;;;10570738;28;20191;-81
2024/03/15 11:20:28;;;;;;;0.50;0.50;;;16.60;98.40;;;;;;10570148;28;20231;-80
2024/03/15 11:25:32;;;;;;;0.50;0.50;;;16.60;98.20;;;;;;10567997;28;20237;-80
2024/03/15 11:30:34;;;;;;;0.60;0.60;;;16.70;98.30;;;;;;10556004;28;20219;-80
2024/03/15 11:35:39;;;;;;;0.50;0.50;;;16.90;97.60;;;;;;10565344;28;20676;-81
2024/03/15 11:40:41;;;;;;;0.50;0.50;;;17.10;97.80;;;;;;10558491;28;20311;-81
2024/03/15 11:45:44;;;;;;;0.40;0.40;;;17.30;97.20;;;;;;10548914;28;20249;-80
2024/03/15 11:50:46;;;;;;;0.60;0.60;;;17.50;97.10;;;;;;10550907;28;20272;-81
2024/03/15 11:55:49;;;;;;;0.50;0.50;;;17.50;96.90;;;;;;10567186;28;20199;-80
2024/03/15 12:00:51;;;;;;;0.40;0.40;;;17.50;96.00;;;;;;10560475;28;20226;-81
2024/03/15 12:05:54;;;;;;;0.37;0.37;;;17.50;96.10;;;;;;10569505;28;20225;-80
2024/03/15 12:10:56;;;;;;;0.50;0.50;;;17.40;95.80;;;;;;10554799;28;20219;-81
2024/03/15 12:16:00;;;;;;;0.30;0.30;;;17.30;96.60;;;;;;10562157;28;20206;-81
2024/03/15 12:21:03;;;;;;;0.40;0.40;;;17.40;96.20;;;;;;10555231;28;20230;-81
2024/03/15 12:26:05;;;;;;;0.40;0.40;;;17.40;96.50;;;;;;10567241;28;20191;-81
2024/03/15 12:31:08;;;;;;;0.40;0.40;;;17.60;95.90;;;;;;10563161;28;20207;-81
2024/03/15 12:36:10;;;;;;;0.40;0.40;;;17.70;94.70;;;;;;10549954;28;20203;-80
2024/03/15 12:41:13;;;;;;;0.40;0.40;;;17.60;95.50;;;;;;10546557;28;20242;-82
2024/03/15 12:46:15;;;;;;;0.40;0.40;;;17.70;95.60;;;;;;10534719;28;20206;-81
2024/03/15 12:51:18;;;;;;;0.40;0.40;;;17.80;93.60;;;;;;10564578;28;20219;-80
2024/03/15 12:56:21;;;;;;;0.40;0.40;;;17.70;94.60;;;;;;10534421;28;20210;-81
2024/03/15 13:01:23;;;;;;;0.40;0.40;;;17.60;94.70;;;;;;10564442;28;20223;-82
2024/03/15 13:06:26;;;;;;;0.40;0.40;;;17.60;95.10;;;;;;10565705;28;20210;-81
2024/03/15 13:11:29;;;;;;;0.40;0.40;;;17.50;95.00;;;;;;10566048;28;20198;-81
2024/03/15 13:16:31;;;;;;;0.20;0.20;;;17.50;94.90;;;;;;10549567;28;20222;-82
2024/03/15 13:21:34;;;;;;;0.40;0.40;;;17.50;95.10;;;;;;10567421;28;20218;-81
2024/03/15 13:26:37;;;;;;;0.40;0.40;;;17.60;93.50;;;;;;10570228;28;20633;-80
2024/03/15 13:31:39;;;;;;;0.40;0.40;;;17.50;93.50;;;;;;10561025;28;20245;-81
2024/03/15 13:36:41;;;;;;;0.30;0.30;;;17.50;93.80;;;;;;10574928;28;20609;-80
2024/03/15 13:41:45;;;;;;;0.40;0.40;;;17.50;93.20;;;;;;10568828;28;20223;-81
2024/03/15 13:46:48;;;;;;;0.20;0.20;;;17.50;93.10;;;;;;10574481;28;20215;-82
2024/03/15 13:51:50;;;;;;;0.40;0.40;;;17.40;93.80;;;;;;10575020;28;20203;-82
2024/03/15 13:56:53;;;;;;;0.30;0.30;;;17.40;93.60;;;;;;10572287;28;20226;-81
2024/03/15 14:01:55;;;;;;;0.30;0.30;;;17.20;94.30;;;;;;10574596;28;20219;-80
2024/03/15 14:06:58;;;;;;;0.40;0.40;;;17.20;94.40;;;;;;10574457;28;20649;-80
2024/03/15 14:12:00;;;;;;;0.40;0.40;;;17.20;94.20;;;;;;10575335;28;20199;-82
2024/03/15 14:17:03;;;;;;;0.30;0.30;;;17.20;94.80;;;;;;10568755;28;20219;-80
2024/03/15 14:22:05;;;;;;;0.33;0.33;;;17.10;94.30;;;;;;10565098;28;20211;-80
2024/03/15 14:27:08;;;;;;;0.40;0.40;;;17.00;94.10;;;;;;10563892;28;20692;-80
2024/03/15 14:32:10;;;;;;;0.40;0.40;;;16.90;94.50;;;;;;10566274;28;20207;-80
2024/03/15 14:37:13;;;;;;;0.60;0.60;;;16.90;94.50;;;;;;10563228;28;20575;-81
2024/03/15 14:42:16;;;;;;;0.20;0.20;;;16.80;94.30;;;;;;10566660;28;20257;-81
2024/03/15 14:47:19;;;;;;;0.60;0.60;;;16.70;94.40;;;;;;10564763;28;20231;-81
2024/03/15 14:52:21;;;;;;;0.60;0.60;;;16.60;94.20;;;;;;10562474;28;20199;-80
2024/03/15 14:57:24;;;;;;;0.50;0.50;;;16.60;94.80;;;;;;10568190;28;20231;-81
2024/03/15 15:02:26;;;;;;;0.63;0.63;;;16.60;94.90;;;;;;10573213;28;20676;-81
2024/03/15 15:07:29;;;;;;;0.60;0.60;;;16.60;95.00;;;;;;10576552;28;20211;-81
2024/03/15 15:12:31;;;;;;;0.60;0.60;;;16.50;95.10;;;;;;10576289;28;20225;-82
2024/03/15 15:17:34;;;;;;;0.60;0.60;;;16.40;94.50;;;;;;10575648;28;20722;-82
2024/03/15 15:22:38;;;;;;;0.50;0.50;;;16.40;94.10;;;;;;10575851;28;20226;-81
2024/03/15 15:27:40;;;;;;;0.57;0.57;;;16.30;94.40;;;;;;10573801;28;20237;-81
2024/03/15 15:32:43;;;;;;;0.53;0.53;;;16.10;95.10;;;;;;10593982;28;20200;-81
2024/03/15 15:37:45;;;;;;;0.70;0.70;;;16.10;95.50;;;;;;10590795;28;20219;-81
2024/03/15 15:42:47;;;;;;;0.60;0.60;;;16.10;94.30;;;;;;10554558;28;20218;-81
2024/03/15 15:47:50;;;;;;;0.70;0.70;;;16.10;94.20;;;;;;10587299;28;20219;-81
2024/03/15 15:52:52;;;;;;;0.60;0.60;;;16.10;94.30;;;;;;10554888;28;20234;-81
2024/03/15 15:57:55;;;;;;;0.60;0.60;;;16.20;93.80;;;;;;10553733;28;20692;-81
2024/03/15 16:02:57;;;;;;;0.47;0.47;;;16.20;94.00;;;;;;10567760;28;20249;-81
2024/03/15 16:08:02;;;;;;;0.60;0.60;;;16.10;94.50;;;;;;10554677;28;20649;-81
2024/03/15 16:13:05;;;;;;;0.50;0.50;;;16.10;94.90;;;;;;10569484;28;20415;-81
2024/03/15 16:18:07;;;;;;;0.50;0.50;;;16.10;95.30;;;;;;10565511;28;20268;-81
2024/03/15 16:23:10;;;;;;;0.40;0.40;;;16.00;95.10;;;;;;10567619;28;20230;-81
2024/03/15 16:28:12;;;;;;;0.50;0.50;;;16.00;95.60;;;;;;10579610;28;20767;-81
2024/03/15 16:33:15;;;;;;;0.60;0.60;;;15.90;95.80;;;;;;10559113;28;20576;-80
2024/03/15 16:38:17;;;;;;;0.50;0.50;;;15.80;95.60;;;;;;10558805;28;20650;-81
2024/03/15 16:43:20;;;;;;;0.60;0.60;;;15.80;94.40;;;;;;10583457;28;20214;-81
2024/03/15 16:48:23;;;;;;;0.47;0.47;;;15.70;95.70;;;;;;10560907;28;20219;-82
2024/03/15 16:53:26;;;;;;;0.60;0.60;;;15.70;95.90;;;;;;10583778;28;20195;-81
2024/03/15 16:58:29;;;;;;;0.60;0.60;;;15.70;95.00;;;;;;10584355;28;20230;-80
2024/03/15 17:03:32;;;;;;;0.50;0.50;;;15.60;95.60;;;;;;10580922;28;20244;-81
2024/03/15 17:08:35;;;;;;;0.60;0.60;;;15.60;95.60;;;;;;10583430;28;20226;-81
2024/03/15 17:13:37;;;;;;;0.50;0.50;;;15.70;94.90;;;;;;10582296;28;20555;-81
2024/03/15 17:18:40;;;;;;;0.50;0.50;;;15.70;94.40;;;;;;10577036;28;20726;-81
2024/03/15 17:23:42;;;;;;;0.50;0.50;;;15.60;94.70;;;;;;10585757;28;20271;-80
2024/03/15 17:28:45;;;;;;;0.40;0.40;;;15.60;94.80;;;;;;10583012;28;20234;-81
2024/03/15 17:33:47;;;;;;;0.60;0.60;;;15.60;94.50;;;;;;10559344;28;20669;-81
2024/03/15 17:38:49;;;;;;;0.60;0.60;;;15.50;95.40;;;;;;10561812;28;20271;-81
2024/03/15 17:43:52;;;;;;;0.57;0.57;;;15.40;95.30;;;;;;10571066;28;20211;-82
2024/03/15 17:48:55;;;;;;;0.50;0.50;;;15.30;95.10;;;;;;10591100;28;20642;-81
2024/03/15 17:53:58;;;;;;;0.50;0.50;;;15.20;95.60;;;;;;10561116;28;20184;-81
2024/03/15 17:59:01;;;;;;;0.60;0.60;;;15.10;94.20;;;;;;10560492;28;20220;-81
2024/03/15 18:04:03;;;;;;;0.60;0.60;;;15.00;94.80;;;;;;10562935;28;20212;-81
2024/03/15 18:09:08;;;;;;;0.70;0.70;;;14.90;95.80;;;;;;10579231;28;20207;-81
2024/03/15 18:14:10;;;;;;;0.70;0.70;;;14.80;96.40;;;;;;10572219;28;20566;-81
2024/03/15 18:19:13;;;;;;;0.60;0.60;;;14.80;95.60;;;;;;10591479;28;20211;-82
2024/03/15 18:24:15;;;;;;;0.70;0.70;;;14.80;95.70;;;;;;10567865;28;20684;-82
2024/03/15 18:29:18;;;;;;;0.63;0.63;;;14.80;95.50;;;;;;10585125;28;20223;-82
2024/03/15 18:34:20;;;;;;;0.60;0.60;;;14.80;95.10;;;;;;10552782;28;20678;-82
2024/03/15 18:39:25;;;;;;;0.50;0.50;;;14.80;94.80;;;;;;10572736;28;20207;-82
2024/03/15 18:44:28;;;;;;;0.60;0.60;;;14.80;95.10;;;;;;10584495;28;20215;-82
2024/03/15 18:49:30;;;;;;;0.50;0.50;;;14.80;95.20;;;;;;10570756;28;20233;-82
2024/03/15 18:54:32;;;;;;;0.70;0.70;;;14.70;95.50;;;;;;10587357;28;20249;-82
2024/03/15 18:59:40;;;;;;;0.70;0.70;;;14.60;95.00;;;;;;10570866;28;20231;-81
2024/03/15 19:04:46;;;;;;;0.70;0.70;;;14.60;94.60;;;;;;10586182;28;20715;-82
2024/03/15 19:09:49;;;;;;;0.60;0.60;;;14.60;94.60;;;;;;10553089;28;20238;-83
2024/03/15 19:14:51;;;;;;;0.50;0.50;;;14.60;94.60;;;;;;10580719;28;20195;-81
2024/03/15 19:19:55;;;;;;;0.60;0.60;;;14.60;94.60;;;;;;10565006;28;20219;-81
2024/03/15 19:24:57;;;;;;;0.37;0.37;;;14.60;94.80;;;;;;10587341;28;20245;-82
2024/03/15 19:30:00;;;;;;;0.60;0.60;;;14.60;95.00;;;;;;10573075;28;20724;-82
2024/03/15 19:35:03;;;;;;;0.60;0.60;;;14.50;95.00;;;;;;10588814;28;20187;-81
2024/03/15 19:40:06;;;;;;;0.60;0.60;;;14.50;95.00;;;;;;10585564;28;20253;-82
2024/03/15 19:45:08;;;;;;;0.57;0.57;;;14.50;95.40;;;;;;10589839;28;20238;-83
2024/03/15 19:50:11;;;;;;;0.70;0.70;;;14.40;95.60;;;;;;10595364;28;20231;-81
2024/03/15 19:55:14;;;;;;;0.60;0.60;;;14.40;95.70;;;;;;10582182;28;20206;-82
2024/03/15 20:00:16;;;;;;;0.63;0.63;;;14.40;95.70;;;;;;10598819;28;20226;-82
2024/03/15 20:05:18;;;;;;;0.60;0.60;;;14.40;95.80;;;;;;10571236;28;20219;-81
2024/03/15 20:10:21;;;;;;;0.50;0.50;;;14.40;96.60;;;;;;10584054;28;20756;-82
2024/03/15 20:15:23;;;;;;;0.80;0.80;;;14.20;98.00;;;;;;10579617;28;20195;-81
2024/03/15 20:20:26;;;;;;;0.70;0.70;;;14.00;99.00;;;;;;10589348;28;20223;-81
2024/03/15 20:25:28;;;;;;;0.83;0.83;;;13.80;99.30;;;;;;10578267;28;20264;-82
2024/03/15 20:30:31;;;;;;;0.70;0.70;;;13.70;99.70;;;;;;10575901;28;20215;-82
2024/03/15 20:35:33;;;;;;;0.70;0.70;;;13.70;99.70;;;;;;10583914;28;20575;-82
2024/03/15 20:40:36;;;;;;;0.70;0.70;;;13.70;99.70;;;;;;10555938;28;20637;-82
2024/03/15 20:45:38;;;;;;;0.70;0.70;;;13.80;99.30;;;;;;10570212;28;20215;-82
2024/03/15 20:50:42;;;;;;;0.70;0.70;;;13.80;99.50;;;;;;10580504;28;20227;-82
2024/03/15 20:55:45;;;;;;;0.80;0.80;;;13.90;99.30;;;;;;10604637;28;20203;-82
2024/03/15 21:00:48;;;;;;;0.77;0.77;;;14.00;98.90;;;;;;10578057;28;20630;-82
2024/03/15 21:05:54;;;;;;;0.67;0.67;;;14.10;98.70;;;;;;10570184;28;20218;-81
2024/03/15 21:10:59;;;;;;;0.70;0.70;;;14.20;99.10;;;;;;10574082;28;20215;-82
2024/03/15 21:16:03;;;;;;;1.00;1.00;;;14.10;99.90;;;;;;10572601;28;20191;-82
2024/03/15 21:21:09;;;;;;;1.20;1.20;;;13.80;99.90;;;;;;10573267;28;20215;-82
2024/03/15 21:26:12;;;;;;;1.00;1.00;;;13.50;99.90;;;;;;10568276;28;20214;-82
2024/03/15 21:31:15;;;;;;;0.80;0.80;;;13.40;99.90;;;;;;10568950;28;20238;-81
2024/03/15 21:36:18;;;;;;;1.00;1.00;;;13.30;99.90;;;;;;10556694;28;20195;-82
2024/03/15 21:41:20;;;;;;;1.20;1.20;;;13.10;99.90;;;;;;10572721;28;20245;-81
2024/03/15 21:46:31;;;;;;;1.30;1.30;;;12.90;99.90;;;;;;10553620;28;20291;-81
2024/03/15 21:51:34;;;;;;;1.30;1.30;;;12.80;99.90;;;;;;10572941;28;20554;-82
2024/03/15 21:56:36;;;;;;;2.03;2.03;;;12.70;99.90;;;;;;10562967;28;20180;-81
2024/03/15 22:01:39;;;;;;;1.80;1.80;;;12.50;99.90;;;;;;10556299;28;20723;-83
2024/03/15 22:06:42;;;;;;;1.70;1.70;;;12.40;99.90;;;;;;10554712;28;20745;-81
2024/03/15 22:11:44;;;;;;;2.47;2.47;;;12.30;99.90;;;;;;10540791;28;20204;-81
2024/03/15 22:16:47;;;;;;;2.90;2.90;;;12.20;99.90;;;;;;10539454;28;20695;-82
2024/03/15 22:21:49;;;;;;;2.90;2.90;;;12.10;99.90;;;;;;10557132;28;20241;-81
2024/03/15 22:26:52;;;;;;;3.03;3.03;;;12.00;99.90;;;;;;10568042;28;20237;-81
2024/03/15 22:31:55;;;;;;;2.90;2.90;;;11.90;99.90;;;;;;10555287;28;20549;-81
2024/03/15 22:37:00;;;;;;;3.40;3.40;;;11.80;99.90;;;;;;10581371;28;20211;-81
2024/03/15 22:42:03;;;;;;;3.90;3.90;;;11.70;99.90;;;;;;10574322;28;20256;-81
2024/03/15 22:47:05;;;;;;;4.00;4.00;;;11.70;99.90;;;;;;10568052;28;20234;-81
2024/03/15 22:52:08;;;;;;;5.20;5.20;;;11.60;99.90;;;;;;10556731;28;20225;-80
2024/03/15 22:57:12;;;;;;;5.20;5.20;;;11.50;99.90;;;;;;10569877;28;20211;-81
2024/03/15 23:02:15;;;;;;;5.13;5.13;;;11.40;99.90;;;;;;10575985;28;20192;-80
2024/03/15 23:07:21;;;;;;;6.30;6.30;;;11.40;99.90;;;;;;10592817;28;20215;-80
2024/03/15 23:12:23;;;;;;;5.67;5.67;;;11.20;99.90;;;;;;10598102;28;20242;-80
2024/03/15 23:17:26;;;;;;;5.40;5.40;;;11.20;99.90;;;;;;10611831;28;20339;-80
2024/03/15 23:22:28;;;;;;;4.60;4.60;;;11.10;99.90;;;;;;10584405;28;20203;-80
2024/03/15 23:27:31;;;;;;;4.13;4.13;;;11.10;99.90;;;;;;10564774;28;20641;-80
2024/03/15 23:32:34;;;;;;;3.90;3.90;;;11.10;99.90;;;;;;10565677;28;20203;-81
2024/03/15 23:37:36;;;;;;;3.60;3.60;;;11.10;99.90;;;;;;10564334;28;20222;-80
2024/03/15 23:42:39;;;;;;;3.17;3.17;;;11.10;99.90;;;;;;10556442;28;20256;-80
2024/03/15 23:47:42;;;;;;;2.70;2.70;;;11.10;99.90;;;;;;10562022;28;20319;-80
2024/03/15 23:52:44;;;;;;;2.90;2.90;;;11.10;99.90;;;;;;10535861;28;20217;-80
2024/03/15 23:57:47;;;;;;;2.53;2.53;;;11.10;99.90;;;;;;10535886;28;20233;-80
